createdAt,value
2018-03-20T00:05:27.087Z,-3.71
2018-03-20T00:11:31.805Z,-3.76
2018-03-20T00:17:36.498Z,-3.80
2018-03-20T00:23:41.860Z,-3.97
2018-03-20T00:29:46.521Z,-4.07
2018-03-20T00:35:51.429Z,-4.02
2018-03-20T00:41:55.955Z,-4.10
2018-03-20T00:48:01.244Z,-4.02
2018-03-20T00:54:05.737Z,-4.12
2018-03-20T01:00:10.511Z,-4.12
2018-03-20T01:06:17.141Z,-4.15
2018-03-20T01:12:21.709Z,-4.09
2018-03-20T01:18:26.191Z,-4.05
2018-03-20T01:24:30.689Z,-3.99
2018-03-20T01:30:35.306Z,-4.13
2018-03-20T01:36:39.823Z,-4.02
2018-03-20T01:42:45.239Z,-3.93
2018-03-20T01:48:50.581Z,-3.75
2018-03-20T01:54:55.200Z,-3.86
2018-03-20T02:00:59.837Z,-3.87
2018-03-20T02:07:04.405Z,-3.94
2018-03-20T02:13:08.927Z,-3.85
2018-03-20T02:19:13.413Z,-3.92
2018-03-20T02:25:18.820Z,-3.76
2018-03-20T02:31:23.636Z,-3.46
2018-03-20T02:37:28.223Z,-3.29
2018-03-20T02:43:32.922Z,-2.93
2018-03-20T02:49:37.586Z,-2.75
2018-03-20T02:55:42.115Z,-2.46
2018-03-20T03:01:47.965Z,-2.26
2018-03-20T03:07:53.441Z,-2.11
2018-03-20T03:13:57.974Z,-1.94
2018-03-20T03:20:02.605Z,-2.27
2018-03-20T03:26:07.159Z,-1.99
2018-03-20T03:32:11.792Z,-1.96
2018-03-20T03:38:16.523Z,-1.74
2018-03-20T03:44:21.732Z,-1.64
2018-03-20T03:50:27.048Z,-1.45
2018-03-20T03:56:31.638Z,-1.36
2018-03-20T04:02:36.252Z,-1.31
2018-03-20T04:08:41.551Z,-1.25
2018-03-20T04:14:46.804Z,-1.08
2018-03-20T04:20:52.470Z,-1.03
2018-03-20T04:26:58.040Z,-0.95
2018-03-20T04:33:02.647Z,-0.96
2018-03-20T04:39:07.074Z,-0.86
2018-03-20T04:45:11.856Z,-0.74
2018-03-20T04:51:16.649Z,-0.69
2018-03-20T04:57:22.044Z,-0.61
2018-03-20T05:03:26.673Z,-0.78
2018-03-20T05:09:31.275Z,-1.01
2018-03-20T05:15:35.831Z,-1.19
2018-03-20T05:21:46.476Z,-1.25
2018-03-20T05:27:51.459Z,-1.57
2018-03-20T05:33:56.176Z,-1.43
2018-03-20T05:40:00.683Z,-1.44
2018-03-20T05:46:05.304Z,-1.35
2018-03-20T05:52:09.928Z,-1.41
2018-03-20T05:58:14.774Z,-1.37
2018-03-20T06:04:19.635Z,-1.28
2018-03-20T06:10:24.409Z,-1.36
2018-03-20T06:16:29.013Z,-1.29
2018-03-20T06:22:33.699Z,-1.26
2018-03-20T06:28:38.320Z,-1.32
2018-03-20T06:34:43.042Z,-1.58
2018-03-20T06:40:49.357Z,-1.73
2018-03-20T06:46:53.893Z,-1.44
2018-03-20T06:52:58.412Z,-1.08
2018-03-20T06:59:03.728Z,-0.91
2018-03-20T07:05:08.333Z,-0.78
2018-03-20T07:11:13.699Z,-0.72
2018-03-20T07:17:19.568Z,-0.70
2018-03-20T07:23:24.262Z,-0.74
2018-03-20T07:29:28.747Z,-0.57
2018-03-20T07:35:34.152Z,-0.48
2018-03-20T07:41:38.636Z,-0.43
2018-03-20T07:47:43.111Z,-0.61
2018-03-20T07:53:48.273Z,-0.75
2018-03-20T07:59:53.178Z,-0.97
2018-03-20T08:05:57.659Z,-0.74
2018-03-20T08:12:02.187Z,-0.67
2018-03-20T08:18:07.443Z,-0.82
2018-03-20T08:24:11.957Z,-0.92
2018-03-20T08:30:17.435Z,-0.78
2018-03-20T08:36:21.986Z,-0.77
2018-03-20T08:42:26.520Z,-0.71
2018-03-20T08:48:31.046Z,-0.56
2018-03-20T08:54:35.558Z,-0.50
2018-03-20T09:00:40.062Z,-0.34
2018-03-20T09:06:44.577Z,-0.15
2018-03-20T09:12:50.325Z,0.25
2018-03-20T09:18:54.940Z,0.59
2018-03-20T09:24:59.439Z,1.02
2018-03-20T09:31:03.952Z,1.27
2018-03-20T09:37:08.432Z,1.39
2018-03-20T09:43:12.892Z,1.55
2018-03-20T09:49:18.154Z,1.63
2018-03-20T09:55:22.788Z,1.79
2018-03-20T10:01:27.294Z,1.89
2018-03-20T10:07:31.915Z,2.08
2018-03-20T10:13:36.434Z,2.15
2018-03-20T10:19:40.927Z,2.21
2018-03-20T10:25:46.445Z,2.24
2018-03-20T10:31:51.095Z,2.23
2018-03-20T10:37:56.345Z,2.26
2018-03-20T10:44:00.865Z,2.46
2018-03-20T10:50:05.330Z,2.30
2018-03-20T10:56:09.805Z,2.36
2018-03-20T11:02:20.088Z,2.38
2018-03-20T11:08:24.577Z,2.40
2018-03-20T11:14:29.092Z,2.65
2018-03-20T11:20:34.513Z,2.74
2018-03-20T11:26:38.999Z,2.88
2018-03-20T11:32:43.529Z,2.93
2018-03-20T11:38:48.223Z,3.07
2018-03-20T11:44:53.500Z,3.01
2018-03-20T11:50:58.027Z,2.97
2018-03-20T11:57:02.494Z,2.95
2018-03-20T12:03:06.956Z,3.24
2018-03-20T12:09:29.023Z,3.33
2018-03-20T12:15:33.441Z,3.47
2018-03-20T12:21:38.224Z,4.19
2018-03-20T12:27:43.523Z,6.46
2018-03-20T12:33:48.827Z,9.60
2018-03-20T12:39:53.404Z,11.05
2018-03-20T12:45:57.875Z,11.02
2018-03-20T12:52:02.596Z,10.84
2018-03-20T12:58:07.058Z,10.61
2018-03-20T13:04:11.576Z,12.72
2018-03-20T13:10:16.089Z,12.98
2018-03-20T13:16:21.329Z,14.96
2018-03-20T13:22:25.958Z,14.65
2018-03-20T13:28:31.305Z,12.33
2018-03-20T13:34:35.781Z,11.94
2018-03-20T13:40:40.392Z,12.67
2018-03-20T13:46:44.992Z,14.04
2018-03-20T13:52:50.480Z,14.22
2018-03-20T13:58:55.155Z,15.37
2018-03-20T14:05:00.436Z,13.84
2018-03-20T14:11:04.955Z,14.29
2018-03-20T14:17:10.193Z,13.43
2018-03-20T14:23:14.713Z,13.24
2018-03-20T14:29:19.749Z,12.88
2018-03-20T14:35:24.639Z,14.70
2018-03-20T14:41:29.162Z,15.84
2018-03-20T14:47:33.871Z,15.04
2018-03-20T14:53:44.870Z,15.14
2018-03-20T14:59:50.078Z,15.39
2018-03-20T15:05:54.553Z,14.19
2018-03-20T15:11:59.220Z,14.32
2018-03-20T15:18:03.824Z,14.60
2018-03-20T15:24:08.454Z,13.41
2018-03-20T15:30:12.930Z,14.02
2018-03-20T15:36:18.251Z,14.61
2018-03-20T15:42:22.855Z,15.36
2018-03-20T15:48:27.420Z,15.21
2018-03-20T15:54:31.888Z,15.07
2018-03-20T16:00:36.409Z,14.81
2018-03-20T16:06:41.874Z,14.86
2018-03-20T16:12:48.844Z,15.24
2018-03-20T16:18:53.475Z,15.00
2018-03-20T16:24:58.170Z,13.74
2018-03-20T16:31:02.638Z,14.09
2018-03-20T16:37:07.146Z,14.40
2018-03-20T16:43:12.400Z,14.06
2018-03-20T16:49:17.824Z,13.84
2018-03-20T16:55:22.408Z,11.91
2018-03-20T17:01:27.632Z,8.89
2018-03-20T17:07:32.272Z,7.21
2018-03-20T17:13:36.825Z,6.34
2018-03-20T17:19:41.594Z,5.56
2018-03-20T17:25:46.120Z,5.04
2018-03-20T17:31:51.028Z,4.67
2018-03-20T17:37:55.584Z,4.53
2018-03-20T17:44:00.249Z,4.21
2018-03-20T17:50:04.738Z,4.08
2018-03-20T17:56:09.315Z,3.95
2018-03-20T18:02:15.024Z,3.84
2018-03-20T18:21:20.374Z,3.08
2018-03-20T18:27:24.906Z,3.20
2018-03-20T18:33:29.493Z,3.17
2018-03-20T18:39:34.114Z,3.16
2018-03-20T18:45:38.580Z,3.13
2018-03-20T18:51:43.168Z,3.12
2018-03-20T18:57:48.367Z,3.02
2018-03-20T19:03:53.008Z,2.98
2018-03-20T19:09:58.293Z,2.89
2018-03-20T19:16:03.139Z,2.71
2018-03-20T19:22:07.719Z,2.60
2018-03-20T19:28:12.260Z,2.53
2018-03-20T19:34:16.986Z,2.55
2018-03-20T19:40:21.883Z,2.47
2018-03-20T19:46:27.190Z,2.36
2018-03-20T19:52:32.515Z,2.29
2018-03-20T19:58:37.011Z,2.12
2018-03-20T20:04:41.530Z,2.02
2018-03-20T20:10:46.177Z,1.98
2018-03-20T20:16:51.340Z,1.89
2018-03-20T20:22:55.898Z,1.82
2018-03-20T20:29:00.456Z,1.79
2018-03-20T20:35:05.071Z,1.58
2018-03-20T20:41:09.590Z,1.47
2018-03-20T20:47:14.281Z,1.42
2018-03-20T20:53:19.843Z,1.44
2018-03-20T20:59:24.437Z,1.40
2018-03-20T21:05:29.164Z,1.17
2018-03-20T21:11:33.984Z,1.04
2018-03-20T21:17:38.461Z,0.88
2018-03-20T21:23:43.056Z,0.83
2018-03-20T21:29:48.426Z,0.67
2018-03-20T21:35:53.266Z,0.69
2018-03-20T21:41:57.822Z,0.56
2018-03-20T21:48:03.232Z,0.44
2018-03-20T21:54:07.785Z,0.39
2018-03-20T22:00:12.971Z,0.31
2018-03-20T22:06:18.497Z,0.38
2018-03-20T22:12:23.010Z,0.38
2018-03-20T22:18:28.367Z,0.35
2018-03-20T22:24:33.025Z,0.20
2018-03-20T22:30:37.630Z,0.06
2018-03-20T22:36:42.114Z,-0.28
2018-03-20T22:42:48.357Z,-0.38
2018-03-20T22:48:53.129Z,-0.52
2018-03-20T22:54:57.919Z,-0.63
2018-03-20T23:01:02.688Z,-0.61
2018-03-20T23:07:08.068Z,-0.70
2018-03-20T23:13:13.527Z,-0.73
2018-03-20T23:19:18.000Z,-0.74
2018-03-20T23:25:22.607Z,-0.83
2018-03-20T23:31:27.353Z,-0.88
2018-03-20T23:37:31.824Z,-1.04
2018-03-20T23:43:36.301Z,-1.22
2018-03-20T23:49:40.821Z,-1.23
2018-03-20T23:55:45.354Z,-1.41
